Dixie, Washington
Current Conditions -  °F | °C
As of 9:53 PM on Wednesday 26 Nov 2014 (Local Time) from KALW Reporting Station
Few Clouds Few Clouds  
Wind Chill: 45°   Ceiling: Unl
Heat Index: 48°   Visibility: 10mi
Dew Point: 41°   Wind: 6mph
Humidity: 77%   Direction: 110°ESE
Pressure: 30"   Gusts: NA
Location:  46.14°N, 118.16°W
Report Text: KALW 270553Z AUTO 11005KT 10SM FEW090 09/05 A3000 RMK AO2 SLP161 T00890050 10128 20083 58008
Loading
Personal Weather Stations






























Interactive Weather Map New forecast layout! Learn more

10-Day Weather Forecast

Advertisements
Track Severe Weather on mobile